Wetterdaten: aktuell Freitag, 21.02.2020 23:45
Datum Zeit Auentemp. Feuchte A. Luftdruck Niederschl. Wind Richtung Richtung Sonnenschein UV Windben
21.02.2020 23:45 3,7 C 77 % 1030,5 hPa 0,0 l/m 0,0 km/h W-NW 300 0 min 0,0 UV-I 0,0 km/h
21.02.2020 22:45 3,9 C 74 % 1030,6 hPa 0,0 l/m 0,0 km/h W-NW 300 0 min 0,0 UV-I 0,0 km/h
21.02.2020 21:45 3,8 C 73 % 1030,7 hPa 0,0 l/m 0,0 km/h W-NW 300 0 min 0,0 UV-I 0,0 km/h
21.02.2020 20:45 4,6 C 69 % 1030,6 hPa 0,0 l/m 0,0 km/h W-NW 298 0 min 0,0 UV-I 0,0 km/h
21.02.2020 19:45 5,2 C 65 % 1030,7 hPa 0,0 l/m 0,0 km/h W-NW 290 0 min 0,0 UV-I 0,0 km/h
21.02.2020 18:45 6,4 C 54 % 1030,2 hPa 0,0 l/m 3,8 km/h W-NW 300 0 min 0,0 UV-I 8,0 km/h
21.02.2020 17:45 6,8 C 51 % 1029,9 hPa 0,0 l/m 5,1 km/h W 272 10 min 0,0 UV-I 9,7 km/h
21.02.2020 16:45 7,7 C 48 % 1029,8 hPa 0,0 l/m 6,5 km/h W 268 55 min 0,0 UV-I 11,3 km/h
21.02.2020 15:45 8,7 C 48 % 1029,7 hPa 0,0 l/m 7,8 km/h S-SW 206 45 min 0,5 UV-I 16,1 km/h
21.02.2020 14:45 8,6 C 48 % 1029,5 hPa 0,0 l/m 9,1 km/h W-NW 286 60 min 1,0 UV-I 17,7 km/h
21.02.2020 13:45 8,1 C 50 % 1030,0 hPa 0,0 l/m 8,2 km/h W-SW 257 60 min 1,1 UV-I 17,7 km/h
21.02.2020 12:45 7,1 C 58 % 1030,3 hPa 0,0 l/m 9,5 km/h W 267 60 min 1,6 UV-I 19,3 km/h
21.02.2020 11:45 5,9 C 62 % 1030,6 hPa 0,0 l/m 11,1 km/h SW 222 60 min 1,3 UV-I 17,7 km/h
21.02.2020 10:45 4,8 C 66 % 1030,7 hPa 0,0 l/m 12,2 km/h W-SW 253 45 min 0,8 UV-I 20,9 km/h
21.02.2020 09:45 4,0 C 71 % 1030,2 hPa 0,0 l/m 9,7 km/h W-SW 240 10 min 0,5 UV-I 16,1 km/h
21.02.2020 08:45 3,4 C 78 % 1029,7 hPa 0,0 l/m 6,4 km/h W-SW 257 15 min 0,0 UV-I 17,7 km/h
21.02.2020 07:45 2,3 C 82 % 1028,5 hPa 0,0 l/m 6,6 km/h SW 236 0 min 0,0 UV-I 11,3 km/h
21.02.2020 06:45 2,8 C 78 % 1027,3 hPa 0,0 l/m 8,0 km/h W 270 0 min 0,0 UV-I 16,1 km/h
21.02.2020 05:45 3,1 C 77 % 1025,7 hPa 0,0 l/m 11,3 km/h W 270 0 min 0,0 UV-I 27,4 km/h
21.02.2020 04:45 3,9 C 78 % 1024,2 hPa 0,0 l/m 11,3 km/h W 270 0 min 0,0 UV-I 17,7 km/h
21.02.2020 03:45 4,9 C 74 % 1022,6 hPa 0,0 l/m 16,1 km/h W 270 0 min 0,0 UV-I 33,8 km/h
21.02.2020 02:45 5,7 C 79 % 1020,5 hPa 1,0 l/m 14,5 km/h W 270 0 min 0,0 UV-I 33,8 km/h
21.02.2020 01:45 5,8 C 83 % 1018,9 hPa 0,2 l/m 9,7 km/h W 270 0 min 0,0 UV-I 22,5 km/h
21.02.2020 00:45 5,9 C 78 % 1018,6 hPa 0,0 l/m 12,9 km/h SW 225 0 min 0,0 UV-I 30,6 km/h
21.02.2020 00:00 4,8 C 81 % 1018,3 hPa 0,0 l/m 9,7 km/h S-SW 202 0 min 0,0 UV-I 14,5 km/h
_ Min-Zeit 07:55 16:35 00:40 - 23:45 - - - - 23:45
Minimum _ 2,1 C 46 % 1018,3 hPa - 0,0 km/h - - - - 0,0 km/h
_ Max-Zeit 15:25 02:05 22:25 02:00 03:15 - - 17:35 12:45 03:05
Maximum _ 9,2 C 87 % 1030,9 hPa 0,6 l/m 22,5 km/h
W
- - 5 min 1,6 UV-I 46,1 km/h
W-SW
Durchschnitt _ 5,3 C 68 % 1027,7 hPa #1,2 l/m 7,7 km/h W - #7:00 h 1,1 UV-I 15,0 km/h